Time;durP1;ratioP1;P1;durP2;ratioP2;P2;SDS_P1;SDS_P2;PMS_P1;PMS_P2;Temp;Humidity;BMP_temperature;BMP_pressure;BME280_temperature;BME280_humidity;BME280_pressure;Samples;Min_cycle;Max_cycle;Signal;HPM_P1;HPM_P2
2020/12/17 00:00:28;;;;;;;59.67;40.15;;;;;;;1.34;77.16;96829.31;5030551;28;20057;-53
2020/12/17 00:02:55;;;;;;;64.13;41.33;;;;;;;1.34;77.37;96830.13;5041496;28;20056;-54
2020/12/17 00:05:23;;;;;;;64.80;43.28;;;;;;;1.32;77.03;96828.66;5019628;28;20076;-54
2020/12/17 00:07:50;;;;;;;58.65;42.20;;;;;;;1.22;77.37;96832.31;5004775;28;20057;-54
2020/12/17 00:10:18;;;;;;;60.22;41.38;;;;;;;1.18;77.71;96828.44;5021078;28;20057;-55
2020/12/17 00:12:47;;;;;;;64.75;44.35;;;;;;;1.23;77.70;96833.94;5007531;28;20058;-54
2020/12/17 00:15:17;;;;;;;68.50;43.33;;;;;;;1.28;77.54;96832.59;5042159;28;20077;-53
2020/12/17 00:17:46;;;;;;;72.07;46.65;;;;;;;1.28;77.58;96832.59;5048655;28;20060;-52
2020/12/17 00:20:16;;;;;;;66.97;44.25;;;;;;;1.25;77.58;96835.53;5022082;28;20080;-54
2020/12/17 00:22:43;;;;;;;64.35;41.72;;;;;;;1.25;77.60;96823.34;5001342;28;20062;-52
2020/12/17 00:25:12;;;;;;;68.28;43.55;;;;;;;1.27;77.70;96836.19;5032999;28;20143;-54
2020/12/17 00:27:40;;;;;;;68.75;42.92;;;;;;;1.27;77.46;96836.97;5046105;28;20061;-54
2020/12/17 00:30:11;;;;;;;61.95;43.83;;;;;;;1.27;77.54;96834.38;5020769;28;20060;-52
2020/12/17 00:32:38;;;;;;;62.90;42.53;;;;;;;1.30;77.10;96835.81;5008827;28;20057;-52
2020/12/17 00:35:07;;;;;;;56.97;40.55;;;;;;;1.27;77.20;96834.38;4996521;28;20057;-53
2020/12/17 00:37:35;;;;;;;62.38;40.88;;;;;;;1.30;77.27;96833.22;5001952;28;20072;-54
2020/12/17 00:40:07;;;;;;;63.95;40.10;;;;;;;1.34;77.06;96835.31;5014910;28;20053;-54
2020/12/17 00:42:39;;;;;;;61.75;39.97;;;;;;;1.31;76.91;96840.03;5025720;28;21897;-54
2020/12/17 00:45:07;;;;;;;65.72;41.38;;;;;;;1.27;77.44;96841.38;5002248;28;20069;-56
2020/12/17 00:47:34;;;;;;;67.13;44.10;;;;;;;1.28;77.36;96841.19;5025737;28;20057;-54
2020/12/17 00:50:06;;;;;;;67.05;40.10;;;;;;;1.30;77.20;96843.63;4997902;28;20053;-54
2020/12/17 00:52:38;;;;;;;62.25;41.50;;;;;;;1.29;77.32;96845.41;5014152;28;20501;-55
2020/12/17 00:55:08;;;;;;;62.13;41.83;;;;;;;1.29;77.22;96847.22;5039847;28;20566;-55
2020/12/17 00:57:37;;;;;;;64.05;40.75;;;;;;;1.31;77.11;96840.88;5012660;28;20041;-54
2020/12/17 01:00:08;;;;;;;59.15;39.63;;;;;;;1.37;77.21;96841.97;5007720;28;20893;-54
2020/12/17 01:02:37;;;;;;;63.88;40.50;;;;;;;1.36;76.95;96841.13;5018077;28;20328;-59
2020/12/17 01:05:06;;;;;;;61.92;41.20;;;;;;;1.33;76.90;96838.91;4982436;28;20053;-54
2020/12/17 01:07:33;;;;;;;60.70;41.17;;;;;;;1.34;76.83;96844.91;5010854;28;20049;-53
2020/12/17 01:10:03;;;;;;;59.40;37.65;;;;;;;1.33;76.98;96840.69;5010833;28;20057;-54
2020/12/17 01:12:31;;;;;;;59.95;38.13;;;;;;;1.28;76.95;96840.41;5000672;28;20060;-54
2020/12/17 01:14:58;;;;;;;63.22;40.92;;;;;;;1.27;77.06;96838.78;5012647;28;20087;-53
2020/12/17 01:17:25;;;;;;;58.67;38.13;;;;;;;1.25;77.43;96843.34;5013662;28;20042;-54
2020/12/17 01:19:52;;;;;;;48.75;31.40;;;;;;;1.29;76.78;96842.03;5045735;28;20060;-54
2020/12/17 01:22:20;;;;;;;55.05;37.75;;;;;;;1.26;76.68;96842.38;5004376;28;20421;-54
2020/12/17 01:24:47;;;;;;;54.03;32.20;;;;;;;1.24;76.79;96837.31;5050228;28;20574;-54
2020/12/17 01:27:14;;;;;;;52.92;33.33;;;;;;;1.19;76.83;96845.63;5025066;28;20046;-52
2020/12/17 01:29:41;;;;;;;55.60;33.58;;;;;;;1.13;77.07;96838.56;5018360;28;20068;-54
2020/12/17 01:32:08;;;;;;;51.55;33.92;;;;;;;1.19;76.81;96843.03;5045332;28;20068;-54
2020/12/17 01:34:36;;;;;;;52.25;33.30;;;;;;;1.25;76.17;96838.94;5047198;28;20050;-53
2020/12/17 01:37:19;;;;;;;51.63;31.35;;;;;;;1.29;76.20;96836.81;5016048;28;20628;-54
2020/12/17 01:39:46;;;;;;;46.45;32.17;;;;;;;1.28;76.01;96838.59;5017652;28;20501;-52
2020/12/17 01:42:13;;;;;;;56.75;34.03;;;;;;;1.33;75.85;96838.06;5010797;28;20049;-54
2020/12/17 01:44:46;;;;;;;52.05;34.10;;;;;;;1.31;75.78;96829.63;5002250;28;20062;-54
2020/12/17 01:47:13;;;;;;;58.08;36.30;;;;;;;1.29;75.80;96832.44;5024624;28;20794;-53
2020/12/17 01:49:45;;;;;;;58.05;36.60;;;;;;;1.26;75.96;96837.16;5013853;28;20529;-52
2020/12/17 01:52:12;;;;;;;55.80;35.05;;;;;;;1.16;76.29;96830.41;5019140;28;20502;-56
2020/12/17 01:54:52;;;;;;;58.38;37.13;;;;;;;1.14;76.17;96823.75;5047902;28;20057;-52
2020/12/17 01:57:22;;;;;;;52.08;34.00;;;;;;;1.10;76.60;96820.69;5063622;28;20049;-54
2020/12/17 01:59:50;;;;;;;61.13;36.15;;;;;;;1.20;76.42;96829.06;5003851;28;20669;-54
2020/12/17 02:02:19;;;;;;;55.80;35.83;;;;;;;1.23;76.44;96822.75;5005990;28;20049;-53
2020/12/17 02:04:47;;;;;;;52.75;35.38;;;;;;;1.28;76.28;96824.81;5005440;28;20064;-52
2020/12/17 02:07:15;;;;;;;63.20;37.45;;;;;;;1.33;76.22;96830.28;5052845;28;20045;-54
2020/12/17 02:09:42;;;;;;;56.08;34.72;;;;;;;1.36;76.23;96822.13;5048936;28;20537;-54
2020/12/17 02:12:10;;;;;;;51.85;34.40;;;;;;;1.36;75.81;96822.94;5045021;28;20045;-56
2020/12/17 02:14:38;;;;;;;51.30;32.60;;;;;;;1.32;75.66;96816.50;5013934;28;20056;-54
2020/12/17 02:17:05;;;;;;;53.33;31.42;;;;;;;1.34;75.92;96818.91;5053605;28;20038;-54
2020/12/17 02:19:32;;;;;;;51.90;32.67;;;;;;;1.33;75.66;96812.09;5015107;28;20061;-53
2020/12/17 02:22:00;;;;;;;49.50;31.77;;;;;;;1.33;75.64;96814.69;4999148;28;20041;-53
2020/12/17 02:24:27;;;;;;;51.55;30.58;;;;;;;1.33;75.44;96819.88;5015862;28;20053;-53
2020/12/17 02:26:54;;;;;;;47.47;30.02;;;;;;;1.27;75.43;96818.00;4998256;28;20069;-54
2020/12/17 02:29:21;;;;;;;51.83;31.08;;;;;;;1.22;75.53;96819.31;5030273;28;20049;-53
2020/12/17 02:31:48;;;;;;;41.35;24.67;;;;;;;1.20;75.64;96812.69;5012866;28;20056;-53
2020/12/17 02:34:16;;;;;;;37.55;24.77;;;;;;;1.08;75.19;96822.66;5024065;28;20044;-53
2020/12/17 02:36:43;;;;;;;40.28;23.15;;;;;;;1.03;75.38;96817.19;5018870;28;20056;-53
2020/12/17 02:39:10;;;;;;;39.13;23.90;;;;;;;0.88;75.76;96804.94;5013131;28;20061;-54
2020/12/17 02:41:38;;;;;;;43.25;25.92;;;;;;;0.92;75.42;96820.97;5013721;28;20053;-53
2020/12/17 02:44:06;;;;;;;36.83;21.42;;;;;;;0.85;76.15;96814.88;5047976;28;20065;-54
2020/12/17 02:46:33;;;;;;;36.17;23.23;;;;;;;0.81;76.11;96819.56;5015711;28;20050;-54
2020/12/17 02:49:00;;;;;;;34.47;22.20;;;;;;;0.79;76.55;96815.53;5019321;28;20068;-53
2020/12/17 02:51:28;;;;;;;35.47;23.00;;;;;;;0.73;76.58;96812.66;5011883;28;20053;-54
2020/12/17 02:53:55;;;;;;;38.85;23.65;;;;;;;0.76;76.54;96814.09;5019680;28;20449;-56
2020/12/17 02:56:22;;;;;;;38.58;23.25;;;;;;;0.76;76.79;96814.88;5015505;28;20049;-53
2020/12/17 02:58:49;;;;;;;34.08;20.88;;;;;;;0.79;76.40;96812.94;5048965;28;20425;-54
2020/12/17 03:01:16;;;;;;;39.45;23.63;;;;;;;0.74;75.94;96805.66;5013350;28;20058;-53
2020/12/17 03:03:43;;;;;;;36.92;21.67;;;;;;;0.68;76.25;96804.56;4987624;28;20406;-53
2020/12/17 03:06:11;;;;;;;41.13;24.63;;;;;;;0.68;76.25;96809.75;5045732;28;20410;-53
2020/12/17 03:08:38;;;;;;;37.92;23.02;;;;;;;0.67;76.81;96809.94;5024628;28;20049;-54
2020/12/17 03:11:05;;;;;;;39.28;21.98;;;;;;;0.60;76.59;96802.81;5046403;28;20053;-54
2020/12/17 03:13:33;;;;;;;41.72;25.70;;;;;;;0.57;77.20;96803.13;5018906;28;20421;-54
2020/12/17 03:16:03;;;;;;;37.60;21.50;;;;;;;0.57;76.93;96797.94;5019400;28;20060;-53
2020/12/17 03:18:30;;;;;;;45.33;25.85;;;;;;;0.55;76.94;96799.94;5016956;28;20068;-53
2020/12/17 03:20:57;;;;;;;36.92;21.83;;;;;;;0.52;76.86;96796.84;5000878;28;20057;-55
2020/12/17 03:23:24;;;;;;;37.63;21.65;;;;;;;0.54;77.10;96802.69;4985551;28;20060;-53
2020/12/17 03:25:52;;;;;;;40.28;25.05;;;;;;;0.53;77.02;96806.25;5020424;28;20049;-55
2020/12/17 03:28:20;;;;;;;38.90;22.90;;;;;;;0.53;77.49;96814.03;5022160;28;20118;-52
2020/12/17 03:30:47;;;;;;;37.33;23.83;;;;;;;0.51;77.25;96814.22;5015185;28;20064;-58
2020/12/17 03:33:14;;;;;;;41.50;24.85;;;;;;;0.48;77.26;96809.34;5018955;28;20053;-53
2020/12/17 03:35:42;;;;;;;41.15;25.13;;;;;;;0.54;77.11;96816.47;5014192;28;20056;-55
2020/12/17 03:38:10;;;;;;;41.88;23.35;;;;;;;0.55;77.30;96815.50;4992703;28;20537;-54
2020/12/17 03:40:37;;;;;;;41.35;24.85;;;;;;;0.51;77.38;96813.38;5035760;28;20058;-55
2020/12/17 03:43:05;;;;;;;41.00;24.85;;;;;;;0.40;77.69;96809.41;5043882;28;20057;-55
2020/12/17 03:45:32;;;;;;;42.60;23.75;;;;;;;0.32;77.80;96812.84;5013555;28;20061;-54
2020/12/17 03:48:00;;;;;;;40.47;24.20;;;;;;;0.28;78.15;96806.34;5017200;28;20198;-53
2020/12/17 03:50:27;;;;;;;46.58;24.92;;;;;;;0.27;78.42;96818.53;5017688;28;20068;-54
2020/12/17 03:52:55;;;;;;;45.35;25.55;;;;;;;0.28;77.96;96811.53;5026431;28;20517;-54
2020/12/17 03:55:22;;;;;;;44.15;24.08;;;;;;;0.29;78.27;96821.78;5017652;28;20417;-52
2020/12/17 03:57:50;;;;;;;41.28;24.40;;;;;;;0.25;78.10;96815.28;5012789;28;20037;-53
2020/12/17 04:00:17;;;;;;;38.95;24.10;;;;;;;0.27;78.01;96812.50;5019445;28;20405;-52
2020/12/17 04:02:44;;;;;;;37.00;22.23;;;;;;;0.30;78.32;96826.00;5002357;28;20385;-53
2020/12/17 04:05:12;;;;;;;41.45;25.38;;;;;;;0.29;78.21;96816.59;5013357;28;20068;-54
2020/12/17 04:07:39;;;;;;;41.88;24.20;;;;;;;0.33;78.22;96822.25;5044594;28;20052;-54
2020/12/17 04:10:07;;;;;;;42.92;28.08;;;;;;;0.31;78.39;96811.22;5015317;28;20057;-53
2020/12/17 04:12:34;;;;;;;40.13;23.38;;;;;;;0.36;78.26;96829.69;5003301;28;20080;-54
2020/12/17 04:15:01;;;;;;;41.03;25.17;;;;;;;0.34;78.03;96829.06;5010428;28;20108;-54
2020/12/17 04:17:28;;;;;;;43.17;26.02;;;;;;;0.37;78.19;96825.31;5012948;28;20049;-54
2020/12/17 04:19:55;;;;;;;43.95;25.92;;;;;;;0.41;78.31;96824.00;5013426;28;20053;-53
2020/12/17 04:22:22;;;;;;;46.35;27.30;;;;;;;0.42;78.28;96817.84;5042919;28;20056;-54
2020/12/17 04:24:49;;;;;;;39.30;23.63;;;;;;;0.38;78.39;96822.53;5014328;28;20053;-54
2020/12/17 04:27:18;;;;;;;42.38;25.50;;;;;;;0.43;78.44;96827.25;5033869;28;20417;-53
2020/12/17 04:29:45;;;;;;;46.25;28.23;;;;;;;0.50;78.52;96817.78;5049730;28;20073;-54
2020/12/17 04:32:12;;;;;;;43.13;28.55;;;;;;;0.56;78.37;96811.09;5015507;28;20061;-53
2020/12/17 04:34:40;;;;;;;45.50;28.17;;;;;;;0.57;77.98;96813.53;5018818;28;20045;-53
2020/12/17 04:37:08;;;;;;;44.17;26.35;;;;;;;0.56;78.09;96817.09;5016971;28;20045;-54
2020/12/17 04:39:35;;;;;;;43.55;26.05;;;;;;;0.56;78.45;96816.31;5004633;28;20056;-53
2020/12/17 04:42:03;;;;;;;45.88;28.98;;;;;;;0.57;78.54;96825.72;5041502;28;20075;-54
2020/12/17 04:44:30;;;;;;;41.15;26.70;;;;;;;0.56;78.44;96822.28;5019230;28;20053;-54
2020/12/17 04:47:01;;;;;;;50.00;29.88;;;;;;;0.59;78.40;96824.56;5016579;28;20073;-54
2020/12/17 04:49:41;;;;;;;45.38;28.00;;;;;;;0.58;78.34;96822.13;5002278;28;20801;-53
2020/12/17 04:52:13;;;;;;;38.70;25.58;;;;;;;0.57;78.38;96828.31;4995874;28;20054;-56
2020/12/17 04:54:41;;;;;;;44.60;28.25;;;;;;;0.54;78.89;96829.47;5047282;28;20651;-53
2020/12/17 04:57:11;;;;;;;58.55;31.65;;;;;;;0.52;78.95;96830.59;5021155;28;20049;-54
2020/12/17 04:59:45;;;;;;;45.85;27.30;;;;;;;0.50;78.85;96830.78;5020031;28;20053;-54
2020/12/17 05:02:15;;;;;;;41.30;25.00;;;;;;;0.55;78.88;96828.47;5023486;28;20049;-54
2020/12/17 05:04:45;;;;;;;51.03;29.60;;;;;;;0.58;78.27;96835.13;5015608;28;20061;-54
2020/12/17 05:07:19;;;;;;;45.15;27.92;;;;;;;0.59;77.94;96836.75;5004519;28;20049;-53
2020/12/17 05:09:48;;;;;;;45.25;26.92;;;;;;;0.59;78.23;96832.34;5016443;28;20053;-53
2020/12/17 05:12:15;;;;;;;44.42;28.02;;;;;;;0.61;78.40;96837.38;4985076;28;20081;-55
2020/12/17 05:14:43;;;;;;;40.75;26.58;;;;;;;0.64;77.89;96831.81;5022142;28;20049;-54
2020/12/17 05:17:11;;;;;;;47.33;27.98;;;;;;;0.67;77.98;96833.31;5025492;28;20413;-52
2020/12/17 05:19:42;;;;;;;46.35;29.40;;;;;;;0.66;77.68;96836.88;5026318;28;20041;-54
2020/12/17 05:22:13;;;;;;;54.42;32.08;;;;;;;0.63;77.90;96840.59;4989391;28;20054;-54
2020/12/17 05:24:44;;;;;;;45.83;29.48;;;;;;;0.62;77.98;96838.97;5052106;28;20053;-54
2020/12/17 05:27:13;;;;;;;41.47;26.05;;;;;;;0.59;78.57;96839.34;5032009;28;20048;-54
2020/12/17 05:29:41;;;;;;;49.88;27.05;;;;;;;0.63;78.04;96842.41;5022620;28;20049;-53
2020/12/17 05:32:11;;;;;;;52.47;29.15;;;;;;;0.60;77.83;96833.97;5021561;28;20045;-53
2020/12/17 05:34:39;;;;;;;54.15;27.33;;;;;;;0.60;77.73;96839.16;5011959;28;20053;-54
2020/12/17 05:37:07;;;;;;;46.55;26.55;;;;;;;0.58;78.14;96838.50;5053566;28;20060;-54
2020/12/17 05:39:42;;;;;;;48.90;27.73;;;;;;;0.63;77.67;96827.63;5022208;28;20064;-53
2020/12/17 05:42:13;;;;;;;46.10;28.08;;;;;;;0.64;77.43;96823.25;5046809;28;20041;-54
2020/12/17 05:44:41;;;;;;;43.55;27.85;;;;;;;0.64;78.11;96831.03;5016008;28;20061;-52
2020/12/17 05:47:13;;;;;;;49.42;32.38;;;;;;;0.63;77.86;96838.00;5005155;28;20068;-54
2020/12/17 05:49:41;;;;;;;55.50;34.60;;;;;;;0.64;77.71;96824.03;5014802;28;20049;-53
2020/12/17 05:52:15;;;;;;;55.00;31.70;;;;;;;0.71;77.21;96829.38;5009020;28;20057;-54
2020/12/17 05:54:57;;;;;;;61.33;33.92;;;;;;;0.78;77.04;96830.31;5006398;28;20068;-59
2020/12/17 05:57:24;;;;;;;53.65;33.38;;;;;;;0.84;76.84;96834.81;5019032;28;20049;-52
2020/12/17 05:59:59;;;;;;;58.15;33.20;;;;;;;0.86;76.71;96832.84;5008478;28;20053;-54
2020/12/17 06:02:32;;;;;;;45.53;28.50;;;;;;;0.86;76.77;96826.88;5017126;28;20058;-55
2020/12/17 06:05:06;;;;;;;46.08;28.23;;;;;;;0.86;76.67;96827.66;4996593;28;20155;-54
2020/12/17 06:07:47;;;;;;;43.28;25.38;;;;;;;0.86;76.85;96832.84;5039964;28;20265;-53
2020/12/17 06:10:30;;;;;;;42.40;25.75;;;;;;;0.85;76.57;96825.25;5011766;28;20061;-54
2020/12/17 06:13:02;;;;;;;46.90;29.08;;;;;;;0.80;76.86;96832.72;5027921;28;22355;-54
2020/12/17 06:15:31;;;;;;;50.20;29.48;;;;;;;0.75;77.40;96830.66;5040223;28;20324;-52
2020/12/17 06:18:03;;;;;;;46.97;28.40;;;;;;;0.72;77.45;96830.97;5041484;28;20079;-53
2020/12/17 06:20:32;;;;;;;53.08;30.70;;;;;;;0.68;77.45;96829.69;5015038;28;20358;-53
2020/12/17 06:23:05;;;;;;;52.75;31.55;;;;;;;0.63;77.67;96830.22;5003145;28;20619;-54
2020/12/17 06:25:34;;;;;;;50.47;31.88;;;;;;;0.65;77.37;96837.84;5011081;28;20049;-54
2020/12/17 06:28:01;;;;;;;52.45;30.15;;;;;;;0.54;77.77;96824.28;5021403;28;20037;-54
2020/12/17 06:30:30;;;;;;;56.63;33.70;;;;;;;0.64;77.85;96833.63;5012558;28;20072;-54
2020/12/17 06:33:00;;;;;;;55.05;33.22;;;;;;;0.67;77.70;96834.09;5046710;28;20088;-55
2020/12/17 06:35:30;;;;;;;56.42;32.65;;;;;;;0.65;78.00;96832.66;5024759;28;20055;-54
2020/12/17 06:38:06;;;;;;;57.63;31.45;;;;;;;0.63;78.00;96832.81;5027313;28;20476;-53
2020/12/17 06:40:38;;;;;;;50.72;29.60;;;;;;;0.63;77.86;96840.59;5047918;28;20053;-54
2020/12/17 06:43:12;;;;;;;57.92;34.30;;;;;;;0.66;78.33;96836.88;5020117;28;20572;-53
2020/12/17 06:45:40;;;;;;;63.10;37.70;;;;;;;0.69;78.09;96842.53;5021419;28;20080;-55
2020/12/17 06:48:31;;;;;;;55.20;34.25;;;;;;;0.72;77.82;96846.56;5005448;28;20038;-53
2020/12/17 06:51:00;;;;;;;70.28;37.42;;;;;;;0.77;77.71;96855.47;4986620;28;20061;-53
2020/12/17 06:53:38;;;;;;;64.47;35.88;;;;;;;0.79;77.82;96847.53;5014003;28;20080;-53
2020/12/17 06:56:15;;;;;;;58.10;33.60;;;;;;;0.84;77.36;96847.81;4974778;28;20694;-53
2020/12/17 06:58:43;;;;;;;58.15;33.55;;;;;;;0.84;77.56;96847.00;5009710;28;20391;-54
2020/12/17 07:01:26;;;;;;;59.25;34.60;;;;;;;0.92;77.43;96852.16;5003455;28;20701;-54
2020/12/17 07:03:53;;;;;;;66.68;38.53;;;;;;;1.00;77.02;96856.50;5009913;28;20083;-52
2020/12/17 07:06:31;;;;;;;61.95;38.00;;;;;;;0.98;76.59;96855.84;5011040;28;20058;-54
2020/12/17 07:09:12;;;;;;;54.15;30.10;;;;;;;1.04;76.35;96853.38;5006776;28;20052;-53
2020/12/17 07:11:43;;;;;;;49.72;28.75;;;;;;;1.03;76.20;96858.75;4999500;28;20057;-52
2020/12/17 07:14:24;;;;;;;51.72;32.05;;;;;;;0.99;76.08;96860.88;5008825;28;20054;-54
2020/12/17 07:16:58;;;;;;;56.00;31.75;;;;;;;0.95;76.72;96851.81;5013495;28;20639;-53
2020/12/17 07:19:27;;;;;;;57.30;33.08;;;;;;;0.92;76.34;96852.16;5020115;28;20045;-53
2020/12/17 07:22:07;;;;;;;50.17;30.88;;;;;;;0.95;76.65;96856.19;5036370;28;20057;-52
2020/12/17 07:24:45;;;;;;;50.58;31.85;;;;;;;0.98;76.67;96856.69;5013989;28;20056;-53
2020/12/17 07:27:15;;;;;;;50.13;32.47;;;;;;;1.01;76.44;96856.31;5016797;28;20057;-54
2020/12/17 07:29:49;;;;;;;49.78;30.65;;;;;;;1.09;76.10;96854.66;5016823;28;20053;-54
2020/12/17 07:32:32;;;;;;;49.05;28.77;;;;;;;1.08;76.15;96846.03;5006170;28;20462;-54
2020/12/17 07:35:20;;;;;;;52.13;31.95;;;;;;;1.17;76.08;96849.41;4991047;28;20068;-54
2020/12/17 07:37:55;;;;;;;56.65;31.20;;;;;;;1.21;76.17;96851.47;5007048;28;20057;-54
2020/12/17 07:40:37;;;;;;;50.05;30.33;;;;;;;1.23;75.98;96857.31;5020420;28;20457;-54
2020/12/17 07:43:07;;;;;;;47.65;30.13;;;;;;;1.22;75.78;96850.50;5034544;28;20050;-54
2020/12/17 07:45:47;;;;;;;52.08;30.15;;;;;;;1.23;76.01;96852.13;5010353;28;20045;-55
2020/12/17 07:48:36;;;;;;;53.30;29.95;;;;;;;1.31;75.68;96866.03;5006301;28;20064;-53
2020/12/17 07:51:04;;;;;;;50.25;29.00;;;;;;;1.33;76.19;96864.06;5025816;28;20060;-53
2020/12/17 07:53:32;;;;;;;78.40;51.95;;;;;;;1.34;75.78;96858.72;5027990;28;20064;-54
2020/12/17 07:56:03;;;;;;;49.22;31.67;;;;;;;1.40;75.37;96854.63;5040251;28;20076;-53
2020/12/17 07:58:30;;;;;;;49.85;33.67;;;;;;;1.42;75.32;96850.03;5044349;28;20037;-55
2020/12/17 08:00:58;;;;;;;49.05;29.23;;;;;;;1.47;75.42;96862.53;5022685;28;20053;-55
2020/12/17 08:03:27;;;;;;;50.58;29.33;;;;;;;1.56;74.84;96858.88;5025294;28;20057;-53
2020/12/17 08:06:18;;;;;;;49.65;28.77;;;;;;;1.60;74.57;96867.91;5006777;28;20597;-53
2020/12/17 08:08:46;;;;;;;56.00;31.52;;;;;;;1.60;74.34;96864.53;5026666;28;20528;-54
2020/12/17 08:11:31;;;;;;;58.28;30.48;;;;;;;1.65;74.41;96860.41;5026129;28;20445;-53
2020/12/17 08:13:59;;;;;;;49.75;29.45;;;;;;;1.61;74.54;96868.75;5016209;28;20053;-53
2020/12/17 08:16:27;;;;;;;54.92;31.45;;;;;;;1.60;74.88;96865.31;5012984;28;20057;-53
2020/12/17 08:18:56;;;;;;;50.88;29.83;;;;;;;1.66;74.18;96864.63;5028797;28;20052;-53
2020/12/17 08:21:24;;;;;;;56.08;34.22;;;;;;;1.79;73.95;96869.22;5030433;28;20712;-52
2020/12/17 08:23:52;;;;;;;53.35;31.45;;;;;;;1.86;73.99;96863.34;5048172;28;20042;-54
2020/12/17 08:26:25;;;;;;;58.20;34.70;;;;;;;1.97;73.55;96870.72;5029472;28;20410;-54
2020/12/17 08:28:54;;;;;;;50.22;31.52;;;;;;;1.98;73.24;96869.72;5020236;28;20033;-54
2020/12/17 08:31:27;;;;;;;59.85;36.47;;;;;;;1.99;73.69;96873.94;5008890;28;20049;-54
2020/12/17 08:34:00;;;;;;;54.85;33.45;;;;;;;2.02;72.68;96878.81;5042369;28;20056;-54
2020/12/17 08:36:29;;;;;;;53.13;32.05;;;;;;;1.97;73.30;96878.53;5014168;28;20049;-54
2020/12/17 08:39:04;;;;;;;55.00;31.02;;;;;;;2.01;72.86;96879.78;5046166;28;20534;-54
2020/12/17 08:41:49;;;;;;;48.00;29.40;;;;;;;2.00;72.37;96881.56;5036643;28;20179;-56
2020/12/17 08:44:34;;;;;;;49.90;30.25;;;;;;;2.09;71.98;96876.31;5014329;28;20056;-55
2020/12/17 08:47:08;;;;;;;55.53;32.53;;;;;;;2.12;72.01;96884.56;5039070;28;20067;-54
2020/12/17 08:49:37;;;;;;;48.13;29.08;;;;;;;2.11;71.87;96882.13;5029269;28;20506;-55
2020/12/17 08:52:05;;;;;;;48.50;28.95;;;;;;;2.14;72.17;96886.97;5027006;28;20272;-55
2020/12/17 08:54:36;;;;;;;48.92;28.13;;;;;;;2.22;71.87;96884.28;5009497;28;20417;-55
2020/12/17 08:57:06;;;;;;;45.63;26.75;;;;;;;2.26;71.53;96887.38;5010134;28;20480;-54
2020/12/17 08:59:34;;;;;;;43.28;28.30;;;;;;;2.25;71.29;96883.94;5007122;28;20060;-55
2020/12/17 09:02:02;;;;;;;45.72;27.60;;;;;;;2.24;71.42;96884.13;5040502;28;20057;-55
2020/12/17 09:04:29;;;;;;;52.10;29.55;;;;;;;2.27;71.31;96876.75;5026656;28;20548;-54
2020/12/17 09:06:59;;;;;;;45.03;27.77;;;;;;;2.25;70.98;96883.16;5016794;28;20974;-56
2020/12/17 09:09:29;;;;;;;50.75;30.77;;;;;;;2.16;71.49;96885.00;5008566;28;20045;-55
2020/12/17 09:12:04;;;;;;;54.95;34.30;;;;;;;2.11;72.18;96879.53;5040409;28;20052;-54
2020/12/17 09:14:36;;;;;;;56.28;31.70;;;;;;;2.24;71.88;96886.72;5019670;28;20050;-55
2020/12/17 09:17:14;;;;;;;53.28;32.83;;;;;;;2.29;71.80;96884.38;5020707;28;20065;-53
2020/12/17 09:19:43;;;;;;;55.05;33.35;;;;;;;2.33;71.65;96885.66;5020196;28;20045;-54
2020/12/17 09:22:21;;;;;;;49.80;32.15;;;;;;;2.40;70.99;96881.31;5042279;28;20451;-54
2020/12/17 09:24:54;;;;;;;54.03;32.35;;;;;;;2.40;71.47;96883.94;5023573;28;20053;-54
2020/12/17 09:27:26;;;;;;;67.10;40.13;;;;;;;2.46;71.72;96882.44;5028671;28;20068;-54
2020/12/17 09:30:06;;;;;;;56.22;35.05;;;;;;;2.46;71.62;96888.44;5018234;28;20501;-55
2020/12/17 09:32:53;;;;;;;57.08;32.05;;;;;;;2.57;71.00;96886.38;5024966;28;20057;-54
2020/12/17 09:35:23;;;;;;;59.53;34.00;;;;;;;2.59;70.51;96884.41;5046288;28;20046;-54
2020/12/17 09:38:01;;;;;;;52.50;32.38;;;;;;;2.54;70.74;96890.16;5024366;28;20489;-54
2020/12/17 09:40:31;;;;;;;47.67;29.23;;;;;;;2.61;70.88;96887.63;5008061;28;20057;-54
2020/12/17 09:43:07;;;;;;;33.15;22.00;;;;;;;2.74;70.38;96884.38;5015046;28;20409;-53
2020/12/17 09:45:35;;;;;;;;;;;;;;;2.80;70.59;96886.28;5049769;28;20049;-54
2020/12/17 09:48:20;;;;;;;24.08;15.77;;;;;;;2.90;69.91;96880.75;5005548;28;20385;-54
2020/12/17 09:51:00;;;;;;;21.20;14.75;;;;;;;3.00;69.17;96875.25;5009047;28;22048;-54
2020/12/17 09:53:31;;;;;;;19.13;12.63;;;;;;;3.10;69.08;96874.97;5003637;28;22221;-52
2020/12/17 09:55:58;;;;;;;23.52;15.35;;;;;;;3.15;68.49;96872.59;5007942;28;20064;-55
2020/12/17 09:58:27;;;;;;;19.15;13.43;;;;;;;3.11;68.58;96871.38;5008620;28;20049;-53
2020/12/17 10:00:54;;;;;;;18.05;12.57;;;;;;;3.14;68.27;96871.81;5049225;28;20054;-54
2020/12/17 10:03:22;;;;;;;18.77;13.23;;;;;;;3.11;68.28;96869.56;5023757;28;20052;-55
2020/12/17 10:05:52;;;;;;;32.30;15.45;;;;;;;3.12;68.58;96867.78;5003659;28;20535;-54
2020/12/17 10:08:21;;;;;;;20.92;14.93;;;;;;;3.11;68.30;96863.56;4999985;28;20058;-55
2020/12/17 10:10:48;;;;;;;21.63;14.00;;;;;;;2.91;68.08;96861.53;5009956;28;20485;-55
2020/12/17 10:13:18;;;;;;;19.05;13.18;;;;;;;2.76;69.15;96872.81;5044188;28;20054;-56
2020/12/17 10:15:46;;;;;;;18.55;13.57;;;;;;;2.81;69.54;96866.22;5044385;28;20049;-55
2020/12/17 10:18:16;;;;;;;22.45;14.32;;;;;;;2.96;69.00;96866.19;5037016;28;20108;-54
2020/12/17 10:20:43;;;;;;;19.05;13.75;;;;;;;2.90;68.77;96875.53;5044019;28;20042;-55
2020/12/17 10:23:12;;;;;;;19.65;15.35;;;;;;;2.82;69.69;96873.03;5040909;28;20080;-54
2020/12/17 10:25:40;;;;;;;20.83;14.90;;;;;;;2.91;69.40;96871.94;5048615;28;20964;-54
2020/12/17 10:28:07;;;;;;;23.13;14.38;;;;;;;2.94;69.31;96871.59;5015581;28;20072;-55
2020/12/17 10:30:35;;;;;;;16.85;12.65;;;;;;;2.98;68.54;96878.06;5011793;28;20053;-57
2020/12/17 10:33:05;;;;;;;18.02;13.98;;;;;;;2.71;69.32;96877.75;5018055;28;20092;-54
2020/12/17 10:35:32;;;;;;;18.10;13.00;;;;;;;2.76;69.56;96880.63;5032532;28;20185;-53
2020/12/17 10:38:24;;;;;;;20.65;14.93;;;;;;;2.67;69.41;96878.28;5029593;28;20065;-54
2020/12/17 10:40:52;;;;;;;19.95;15.27;;;;;;;2.44;70.33;96869.56;5012674;28;20053;-54
2020/12/17 10:43:22;;;;;;;18.63;15.13;;;;;;;2.49;70.38;96873.44;5052655;28;20156;-53
2020/12/17 10:45:50;;;;;;;20.95;15.25;;;;;;;2.55;69.92;96880.53;5050682;28;20045;-54
2020/12/17 10:48:18;;;;;;;19.33;14.07;;;;;;;2.58;70.07;96874.97;5014401;28;20505;-54
2020/12/17 10:50:48;;;;;;;22.55;15.60;;;;;;;2.60;70.01;96876.38;5019649;28;20056;-55
2020/12/17 10:53:16;;;;;;;20.23;16.10;;;;;;;2.67;69.88;96875.69;5042354;28;20422;-54
2020/12/17 10:55:44;;;;;;;22.13;14.60;;;;;;;2.77;69.43;96881.41;5007956;28;20398;-54
2020/12/17 10:58:15;;;;;;;22.20;15.55;;;;;;;2.67;69.62;96880.88;5011764;28;20052;-58
2020/12/17 11:00:45;;;;;;;18.73;14.77;;;;;;;2.70;69.49;96880.53;5040985;28;20076;-57
2020/12/17 11:03:14;;;;;;;22.60;16.27;;;;;;;2.72;70.18;96888.94;4989249;28;20053;-54
2020/12/17 11:05:42;;;;;;;25.00;17.45;;;;;;;2.77;70.00;96882.22;5003451;28;20049;-54
2020/12/17 11:08:19;;;;;;;21.00;15.15;;;;;;;2.79;69.21;96879.44;5003656;28;20054;-53
2020/12/17 11:10:48;;;;;;;17.90;13.55;;;;;;;2.85;69.28;96872.69;5004214;28;20530;-53
2020/12/17 11:13:18;;;;;;;20.02;13.80;;;;;;;2.85;69.04;96877.91;5040742;28;20049;-54
2020/12/17 11:15:48;;;;;;;20.90;15.38;;;;;;;2.82;69.29;96873.88;5014005;28;20049;-55
2020/12/17 11:18:19;;;;;;;17.42;12.77;;;;;;;2.73;68.94;96870.56;5007788;28;20505;-54
2020/12/17 11:20:46;;;;;;;17.85;13.23;;;;;;;2.62;69.91;96876.22;5013941;28;20057;-54
2020/12/17 11:23:19;;;;;;;21.08;13.07;;;;;;;2.64;69.99;96881.25;5009721;28;20481;-57
2020/12/17 11:25:46;;;;;;;20.05;14.15;;;;;;;2.71;69.90;96876.91;5039575;28;20509;-53
2020/12/17 11:28:14;;;;;;;14.40;12.38;;;;;;;2.60;70.11;96870.38;5000252;28;20045;-53
2020/12/17 11:30:43;;;;;;;20.27;14.73;;;;;;;2.67;70.06;96873.88;5010626;28;20056;-57
2020/12/17 11:33:11;;;;;;;16.35;12.63;;;;;;;2.73;69.52;96867.94;5005745;28;20536;-53
2020/12/17 11:35:39;;;;;;;19.48;13.98;;;;;;;2.66;69.83;96874.84;5022821;28;20057;-54
2020/12/17 11:38:06;;;;;;;18.27;13.70;;;;;;;2.63;69.49;96862.22;5005829;28;20061;-53
2020/12/17 11:40:35;;;;;;;19.90;12.98;;;;;;;2.61;69.82;96872.78;5015754;28;20041;-53